sensor_id;sensor_type;location;lat;lon;timestamp;pressure;altitude;pressure_sealevel;temperature;humidity
72896;BME280;61036;53.224;6.554;2022-08-21T00:02:20;101671.41;;;16.27;100.00
72896;BME280;61036;53.224;6.554;2022-08-21T00:04:46;101666.50;;;16.20;100.00
72896;BME280;61036;53.224;6.554;2022-08-21T00:07:12;101666.66;;;16.19;100.00
72896;BME280;61036;53.224;6.554;2022-08-21T00:09:38;101664.47;;;16.13;100.00
72896;BME280;61036;53.224;6.554;2022-08-21T00:12:05;101666.22;;;16.03;100.00
72896;BME280;61036;53.224;6.554;2022-08-21T00:14:32;101664.88;;;15.97;100.00
72896;BME280;61036;53.224;6.554;2022-08-21T00:16:59;101665.50;;;16.00;100.00
72896;BME280;61036;53.224;6.554;2022-08-21T00:19:26;101664.06;;;15.85;100.00
72896;BME280;61036;53.224;6.554;2022-08-21T00:21:52;101663.91;;;15.98;100.00
72896;BME280;61036;53.224;6.554;2022-08-21T00:24:19;101667.84;;;15.94;100.00
72896;BME280;61036;53.224;6.554;2022-08-21T00:26:45;101660.28;;;15.76;100.00
72896;BME280;61036;53.224;6.554;2022-08-21T00:29:14;101655.94;;;15.63;100.00
72896;BME280;61036;53.224;6.554;2022-08-21T00:31:43;101662.00;;;15.55;100.00
72896;BME280;61036;53.224;6.554;2022-08-21T00:34:10;101650.16;;;15.56;100.00
72896;BME280;61036;53.224;6.554;2022-08-21T00:36:36;101653.41;;;15.50;100.00
72896;BME280;61036;53.224;6.554;2022-08-21T00:39:04;101653.25;;;15.51;100.00
72896;BME280;61036;53.224;6.554;2022-08-21T00:41:30;101653.13;;;15.53;100.00
72896;BME280;61036;53.224;6.554;2022-08-21T00:43:56;101657.38;;;15.35;100.00
72896;BME280;61036;53.224;6.554;2022-08-21T00:46:21;101650.94;;;15.24;100.00
72896;BME280;61036;53.224;6.554;2022-08-21T00:48:47;101650.25;;;15.22;100.00
72896;BME280;61036;53.224;6.554;2022-08-21T00:51:17;101657.63;;;15.31;100.00
72896;BME280;61036;53.224;6.554;2022-08-21T00:53:50;101658.84;;;15.39;100.00
72896;BME280;61036;53.224;6.554;2022-08-21T00:56:19;101656.88;;;15.29;100.00
72896;BME280;61036;53.224;6.554;2022-08-21T00:58:46;101654.94;;;15.20;100.00
72896;BME280;61036;53.224;6.554;2022-08-21T01:01:13;101656.78;;;15.20;100.00
72896;BME280;61036;53.224;6.554;2022-08-21T01:03:39;101660.59;;;15.17;100.00
72896;BME280;61036;53.224;6.554;2022-08-21T01:06:05;101653.69;;;15.13;100.00
72896;BME280;61036;53.224;6.554;2022-08-21T01:08:32;101654.69;;;15.12;100.00
72896;BME280;61036;53.224;6.554;2022-08-21T01:10:58;101652.97;;;15.11;100.00
72896;BME280;61036;53.224;6.554;2022-08-21T01:13:25;101655.53;;;15.35;100.00
72896;BME280;61036;53.224;6.554;2022-08-21T01:15:53;101651.94;;;15.23;100.00
72896;BME280;61036;53.224;6.554;2022-08-21T01:18:22;101649.63;;;15.07;100.00
72896;BME280;61036;53.224;6.554;2022-08-21T01:21:02;101650.59;;;15.18;100.00
72896;BME280;61036;53.224;6.554;2022-08-21T01:23:28;101647.78;;;15.19;100.00
72896;BME280;61036;53.224;6.554;2022-08-21T01:25:54;101655.69;;;15.11;100.00
72896;BME280;61036;53.224;6.554;2022-08-21T01:28:21;101655.06;;;15.07;100.00
72896;BME280;61036;53.224;6.554;2022-08-21T01:30:48;101646.78;;;15.20;100.00
72896;BME280;61036;53.224;6.554;2022-08-21T01:33:18;101649.84;;;15.27;100.00
72896;BME280;61036;53.224;6.554;2022-08-21T01:35:47;101651.69;;;15.26;100.00
72896;BME280;61036;53.224;6.554;2022-08-21T01:38:13;101646.50;;;15.35;100.00
72896;BME280;61036;53.224;6.554;2022-08-21T01:40:39;101639.72;;;15.29;100.00
72896;BME280;61036;53.224;6.554;2022-08-21T01:43:05;101643.53;;;15.38;100.00
72896;BME280;61036;53.224;6.554;2022-08-21T01:45:31;101642.28;;;15.42;100.00
72896;BME280;61036;53.224;6.554;2022-08-21T01:47:56;101647.47;;;15.33;100.00
72896;BME280;61036;53.224;6.554;2022-08-21T01:50:22;101643.41;;;15.39;100.00
72896;BME280;61036;53.224;6.554;2022-08-21T01:52:48;101642.44;;;15.29;100.00
72896;BME280;61036;53.224;6.554;2022-08-21T01:55:16;101635.50;;;15.36;100.00
72896;BME280;61036;53.224;6.554;2022-08-21T01:57:46;101632.78;;;15.36;100.00
72896;BME280;61036;53.224;6.554;2022-08-21T02:00:14;101629.09;;;15.26;100.00
72896;BME280;61036;53.224;6.554;2022-08-21T02:02:40;101623.16;;;15.32;100.00
72896;BME280;61036;53.224;6.554;2022-08-21T02:05:08;101622.31;;;15.20;100.00
72896;BME280;61036;53.224;6.554;2022-08-21T02:07:48;101615.63;;;15.24;100.00
72896;BME280;61036;53.224;6.554;2022-08-21T02:10:17;101623.06;;;15.22;100.00
72896;BME280;61036;53.224;6.554;2022-08-21T02:12:46;101618.75;;;15.08;100.00
72896;BME280;61036;53.224;6.554;2022-08-21T02:15:13;101616.53;;;15.14;100.00
72896;BME280;61036;53.224;6.554;2022-08-21T02:17:49;101612.56;;;15.18;100.00
72896;BME280;61036;53.224;6.554;2022-08-21T02:20:21;101614.53;;;15.16;100.00
72896;BME280;61036;53.224;6.554;2022-08-21T02:22:47;101612.44;;;15.19;100.00
72896;BME280;61036;53.224;6.554;2022-08-21T02:25:16;101606.63;;;15.13;100.00
72896;BME280;61036;53.224;6.554;2022-08-21T02:27:43;101609.84;;;15.06;100.00
72896;BME280;61036;53.224;6.554;2022-08-21T02:30:12;101619.59;;;15.20;100.00
72896;BME280;61036;53.224;6.554;2022-08-21T02:32:39;101608.97;;;15.17;100.00
72896;BME280;61036;53.224;6.554;2022-08-21T02:35:05;101608.25;;;15.15;100.00
72896;BME280;61036;53.224;6.554;2022-08-21T02:37:31;101608.97;;;15.17;100.00
72896;BME280;61036;53.224;6.554;2022-08-21T02:39:59;101609.59;;;15.09;100.00
72896;BME280;61036;53.224;6.554;2022-08-21T02:42:25;101606.63;;;15.13;100.00
72896;BME280;61036;53.224;6.554;2022-08-21T02:44:53;101606.28;;;15.06;100.00
72896;BME280;61036;53.224;6.554;2022-08-21T02:47:19;101606.88;;;15.09;100.00
72896;BME280;61036;53.224;6.554;2022-08-21T02:49:45;101608.00;;;15.07;100.00
72896;BME280;61036;53.224;6.554;2022-08-21T02:52:11;101591.09;;;15.03;100.00
72896;BME280;61036;53.224;6.554;2022-08-21T02:54:37;101592.44;;;15.09;100.00
72896;BME280;61036;53.224;6.554;2022-08-21T02:57:03;101593.56;;;15.06;100.00
72896;BME280;61036;53.224;6.554;2022-08-21T02:59:28;101595.56;;;15.04;100.00
72896;BME280;61036;53.224;6.554;2022-08-21T03:01:54;101594.81;;;15.02;100.00
72896;BME280;61036;53.224;6.554;2022-08-21T03:04:21;101586.25;;;15.07;100.00
72896;BME280;61036;53.224;6.554;2022-08-21T03:06:47;101589.13;;;15.05;100.00
72896;BME280;61036;53.224;6.554;2022-08-21T03:09:14;101580.56;;;15.10;100.00
72896;BME280;61036;53.224;6.554;2022-08-21T03:11:39;101584.53;;;15.17;100.00
72896;BME280;61036;53.224;6.554;2022-08-21T03:14:05;101574.53;;;15.18;100.00
72896;BME280;61036;53.224;6.554;2022-08-21T03:16:31;101573.06;;;15.14;100.00
72896;BME280;61036;53.224;6.554;2022-08-21T03:18:56;101573.44;;;15.09;100.00
72896;BME280;61036;53.224;6.554;2022-08-21T03:21:24;101575.53;;;15.17;100.00
72896;BME280;61036;53.224;6.554;2022-08-21T03:23:49;101567.72;;;15.23;100.00
72896;BME280;61036;53.224;6.554;2022-08-21T03:26:15;101567.00;;;15.10;100.00
72896;BME280;61036;53.224;6.554;2022-08-21T03:28:43;101568.50;;;15.14;100.00
72896;BME280;61036;53.224;6.554;2022-08-21T03:31:09;101564.16;;;15.12;100.00
72896;BME280;61036;53.224;6.554;2022-08-21T03:33:34;101560.94;;;15.18;100.00
72896;BME280;61036;53.224;6.554;2022-08-21T03:36:05;101564.50;;;15.18;100.00
72896;BME280;61036;53.224;6.554;2022-08-21T03:38:32;101565.03;;;15.12;100.00
72896;BME280;61036;53.224;6.554;2022-08-21T03:40:59;101562.31;;;15.12;100.00
72896;BME280;61036;53.224;6.554;2022-08-21T03:43:26;101559.84;;;15.09;100.00
72896;BME280;61036;53.224;6.554;2022-08-21T03:45:52;101556.00;;;15.12;100.00
72896;BME280;61036;53.224;6.554;2022-08-21T03:48:18;101551.94;;;15.06;100.00
72896;BME280;61036;53.224;6.554;2022-08-21T03:50:44;101547.63;;;15.03;100.00
72896;BME280;61036;53.224;6.554;2022-08-21T03:53:13;101544.91;;;15.03;100.00
72896;BME280;61036;53.224;6.554;2022-08-21T03:55:39;101551.34;;;15.02;100.00
72896;BME280;61036;53.224;6.554;2022-08-21T03:58:05;101551.19;;;15.04;100.00
72896;BME280;61036;53.224;6.554;2022-08-21T04:00:31;101548.75;;;15.01;100.00
72896;BME280;61036;53.224;6.554;2022-08-21T04:02:57;101547.28;;;14.97;100.00
72896;BME280;61036;53.224;6.554;2022-08-21T04:05:23;101552.72;;;14.97;100.00
72896;BME280;61036;53.224;6.554;2022-08-21T04:08:01;101551.34;;;14.91;100.00
72896;BME280;61036;53.224;6.554;2022-08-21T04:10:29;101547.28;;;14.85;100.00
72896;BME280;61036;53.224;6.554;2022-08-21T04:12:55;101550.50;;;14.91;100.00
72896;BME280;61036;53.224;6.554;2022-08-21T04:15:23;101547.91;;;14.89;100.00
72896;BME280;61036;53.224;6.554;2022-08-21T04:17:49;101543.81;;;14.95;100.00
72896;BME280;61036;53.224;6.554;2022-08-21T04:20:18;101548.66;;;14.80;100.00
72896;BME280;61036;53.224;6.554;2022-08-21T04:22:44;101541.00;;;14.85;100.00
72896;BME280;61036;53.224;6.554;2022-08-21T04:25:11;101545.69;;;14.83;100.00
72896;BME280;61036;53.224;6.554;2022-08-21T04:27:37;101549.75;;;14.89;100.00
72896;BME280;61036;53.224;6.554;2022-08-21T04:30:06;101554.22;;;14.90;100.00
72896;BME280;61036;53.224;6.554;2022-08-21T04:32:32;101550.50;;;14.91;100.00
72896;BME280;61036;53.224;6.554;2022-08-21T04:35:03;101550.84;;;14.86;100.00
72896;BME280;61036;53.224;6.554;2022-08-21T04:37:30;101544.72;;;14.84;100.00
72896;BME280;61036;53.224;6.554;2022-08-21T04:39:55;101546.94;;;14.79;100.00
72896;BME280;61036;53.224;6.554;2022-08-21T04:42:26;101549.41;;;14.82;100.00
72896;BME280;61036;53.224;6.554;2022-08-21T04:44:53;101550.75;;;14.76;100.00
72896;BME280;61036;53.224;6.554;2022-08-21T04:47:18;101550.16;;;14.84;100.00
72896;BME280;61036;53.224;6.554;2022-08-21T04:49:46;101563.56;;;14.85;100.00
72896;BME280;61036;53.224;6.554;2022-08-21T04:52:21;101549.78;;;14.77;100.00
72896;BME280;61036;53.224;6.554;2022-08-21T04:54:51;101552.09;;;14.82;100.00
72896;BME280;61036;53.224;6.554;2022-08-21T04:57:18;101546.31;;;14.86;100.00
72896;BME280;61036;53.224;6.554;2022-08-21T04:59:47;101540.75;;;14.88;100.00
72896;BME280;61036;53.224;6.554;2022-08-21T05:02:14;101547.28;;;14.97;100.00
72896;BME280;61036;53.224;6.554;2022-08-21T05:04:48;101549.25;;;14.95;100.00
72896;BME280;61036;53.224;6.554;2022-08-21T05:07:20;101551.72;;;14.98;100.00
72896;BME280;61036;53.224;6.554;2022-08-21T05:09:48;101550.25;;;14.94;100.00
72896;BME280;61036;53.224;6.554;2022-08-21T05:12:15;101551.00;;;14.96;100.00
72896;BME280;61036;53.224;6.554;2022-08-21T05:14:40;101557.78;;;15.01;100.00
72896;BME280;61036;53.224;6.554;2022-08-21T05:17:08;101552.72;;;14.97;100.00
72896;BME280;61036;53.224;6.554;2022-08-21T05:19:35;101553.56;;;14.97;100.00
72896;BME280;61036;53.224;6.554;2022-08-21T05:22:00;101554.69;;;14.95;100.00
72896;BME280;61036;53.224;6.554;2022-08-21T05:24:27;101556.28;;;14.97;100.00
72896;BME280;61036;53.224;6.554;2022-08-21T05:26:53;101559.16;;;14.96;100.00
72896;BME280;61036;53.224;6.554;2022-08-21T05:29:19;101557.38;;;15.06;100.00
72896;BME280;61036;53.224;6.554;2022-08-21T05:31:47;101563.16;;;15.13;100.00
72896;BME280;61036;53.224;6.554;2022-08-21T05:34:20;101565.28;;;15.09;100.00
72896;BME280;61036;53.224;6.554;2022-08-21T05:36:47;101555.41;;;15.08;100.00
72896;BME280;61036;53.224;6.554;2022-08-21T05:39:13;101562.44;;;15.11;100.00
72896;BME280;61036;53.224;6.554;2022-08-21T05:41:41;101563.78;;;15.16;100.00
72896;BME280;61036;53.224;6.554;2022-08-21T05:44:07;101562.16;;;15.25;100.00
72896;BME280;61036;53.224;6.554;2022-08-21T05:46:33;101555.84;;;15.24;100.00
72896;BME280;61036;53.224;6.554;2022-08-21T05:49:00;101560.16;;;15.27;100.00
72896;BME280;61036;53.224;6.554;2022-08-21T05:51:25;101562.25;;;15.35;100.00
72896;BME280;61036;53.224;6.554;2022-08-21T05:53:52;101565.84;;;15.35;100.00
72896;BME280;61036;53.224;6.554;2022-08-21T05:56:18;101559.66;;;15.33;100.00
72896;BME280;61036;53.224;6.554;2022-08-21T05:58:44;101565.44;;;15.40;100.00
72896;BME280;61036;53.224;6.554;2022-08-21T06:01:10;101561.88;;;15.39;100.00
72896;BME280;61036;53.224;6.554;2022-08-21T06:03:39;101564.41;;;15.52;100.00
72896;BME280;61036;53.224;6.554;2022-08-21T06:06:06;101567.00;;;15.53;100.00
72896;BME280;61036;53.224;6.554;2022-08-21T06:08:32;101564.41;;;15.52;100.00
72896;BME280;61036;53.224;6.554;2022-08-21T06:11:00;101569.47;;;15.57;100.00
72896;BME280;61036;53.224;6.554;2022-08-21T06:13:26;101563.63;;;15.61;100.00
72896;BME280;61036;53.224;6.554;2022-08-21T06:16:11;101556.78;;;15.78;100.00
72896;BME280;61036;53.224;6.554;2022-08-21T06:18:37;101557.38;;;15.82;100.00
72896;BME280;61036;53.224;6.554;2022-08-21T06:21:03;101556.84;;;15.88;100.00
72896;BME280;61036;53.224;6.554;2022-08-21T06:23:30;101554.09;;;15.99;100.00
72896;BME280;61036;53.224;6.554;2022-08-21T06:25:56;101560.44;;;16.09;100.00
72896;BME280;61036;53.224;6.554;2022-08-21T06:28:22;101562.78;;;16.14;100.00
72896;BME280;61036;53.224;6.554;2022-08-21T06:30:48;101570.25;;;16.21;100.00
72896;BME280;61036;53.224;6.554;2022-08-21T06:33:14;101569.31;;;16.32;100.00
72896;BME280;61036;53.224;6.554;2022-08-21T06:35:40;101570.66;;;16.38;100.00
72896;BME280;61036;53.224;6.554;2022-08-21T06:38:09;101569.25;;;16.43;100.00
72896;BME280;61036;53.224;6.554;2022-08-21T06:40:36;101570.09;;;16.44;100.00
72896;BME280;61036;53.224;6.554;2022-08-21T06:43:11;101562.56;;;16.57;100.00
72896;BME280;61036;53.224;6.554;2022-08-21T06:45:37;101567.88;;;16.59;100.00
72896;BME280;61036;53.224;6.554;2022-08-21T06:48:04;101570.25;;;16.73;100.00
72896;BME280;61036;53.224;6.554;2022-08-21T06:50:33;101566.47;;;16.95;100.00
72896;BME280;61036;53.224;6.554;2022-08-21T06:53:10;101569.97;;;17.07;100.00
72896;BME280;61036;53.224;6.554;2022-08-21T06:55:38;101576.63;;;17.33;100.00
72896;BME280;61036;53.224;6.554;2022-08-21T06:58:04;101576.06;;;17.69;100.00
72896;BME280;61036;53.224;6.554;2022-08-21T07:00:31;101573.19;;;17.70;100.00
72896;BME280;61036;53.224;6.554;2022-08-21T07:02:59;101574.63;;;17.55;100.00
72896;BME280;61036;53.224;6.554;2022-08-21T07:05:26;101568.19;;;17.85;100.00
72896;BME280;61036;53.224;6.554;2022-08-21T07:07:52;101577.38;;;17.94;100.00
72896;BME280;61036;53.224;6.554;2022-08-21T07:10:17;101571.75;;;18.05;100.00
72896;BME280;61036;53.224;6.554;2022-08-21T07:12:46;101575.31;;;18.25;100.00
72896;BME280;61036;53.224;6.554;2022-08-21T07:15:11;101578.78;;;18.27;100.00
72896;BME280;61036;53.224;6.554;2022-08-21T07:17:37;101562.28;;;18.56;100.00
72896;BME280;61036;53.224;6.554;2022-08-21T07:20:04;101563.41;;;19.01;100.00
72896;BME280;61036;53.224;6.554;2022-08-21T07:22:31;101566.28;;;19.27;100.00
72896;BME280;61036;53.224;6.554;2022-08-21T07:24:56;101561.59;;;19.55;98.36
72896;BME280;61036;53.224;6.554;2022-08-21T07:27:22;101557.88;;;19.92;93.43
72896;BME280;61036;53.224;6.554;2022-08-21T07:29:47;101560.34;;;20.03;91.07
72896;BME280;61036;53.224;6.554;2022-08-21T07:32:14;101563.41;;;20.00;89.45
72896;BME280;61036;53.224;6.554;2022-08-21T07:34:41;101555.28;;;19.90;91.42
72896;BME280;61036;53.224;6.554;2022-08-21T07:37:09;101568.03;;;19.81;88.55
72896;BME280;61036;53.224;6.554;2022-08-21T07:39:34;101558.31;;;20.05;88.28
72896;BME280;61036;53.224;6.554;2022-08-21T07:42:00;101559.34;;;20.04;85.92
72896;BME280;61036;53.224;6.554;2022-08-21T07:44:26;101554.88;;;20.03;86.11
72896;BME280;61036;53.224;6.554;2022-08-21T07:46:51;101550.25;;;20.03;86.23
72896;BME280;61036;53.224;6.554;2022-08-21T07:49:17;101555.03;;;20.01;83.66
72896;BME280;61036;53.224;6.554;2022-08-21T07:51:43;101557.78;;;20.01;84.67
72896;BME280;61036;53.224;6.554;2022-08-21T07:54:08;101552.25;;;20.19;84.51
72896;BME280;61036;53.224;6.554;2022-08-21T07:56:34;101550.00;;;20.41;83.37
72896;BME280;61036;53.224;6.554;2022-08-21T07:59:00;101547.09;;;20.42;83.11
72896;BME280;61036;53.224;6.554;2022-08-21T08:01:28;101546.53;;;20.57;83.30
72896;BME280;61036;53.224;6.554;2022-08-21T08:03:54;101543.06;;;20.89;81.65
72896;BME280;61036;53.224;6.554;2022-08-21T08:06:20;101548.97;;;20.68;81.56
72896;BME280;61036;53.224;6.554;2022-08-21T08:08:46;101538.97;;;20.93;81.68
72896;BME280;61036;53.224;6.554;2022-08-21T08:11:12;101544.91;;;21.22;79.98
72896;BME280;61036;53.224;6.554;2022-08-21T08:13:51;101547.16;;;21.35;78.65
72896;BME280;61036;53.224;6.554;2022-08-21T08:16:17;101548.78;;;21.54;77.53
72896;BME280;61036;53.224;6.554;2022-08-21T08:18:43;101553.44;;;21.78;76.61
72896;BME280;61036;53.224;6.554;2022-08-21T08:21:10;101548.22;;;21.51;78.58
72896;BME280;61036;53.224;6.554;2022-08-21T08:23:37;101549.63;;;21.96;79.34
72896;BME280;61036;53.224;6.554;2022-08-21T08:26:03;101558.22;;;22.25;75.72
72896;BME280;61036;53.224;6.554;2022-08-21T08:28:30;101549.03;;;22.57;76.32
72896;BME280;61036;53.224;6.554;2022-08-21T08:31:00;101543.16;;;23.39;69.42
72896;BME280;61036;53.224;6.554;2022-08-21T08:33:26;101543.16;;;24.46;68.07
72896;BME280;61036;53.224;6.554;2022-08-21T08:35:52;101540.16;;;27.05;55.60
72896;BME280;61036;53.224;6.554;2022-08-21T08:38:19;101537.78;;;30.60;44.63
72896;BME280;61036;53.224;6.554;2022-08-21T08:40:55;101546.38;;;30.08;43.50
72896;BME280;61036;53.224;6.554;2022-08-21T08:43:21;101539.19;;;30.01;44.70
72896;BME280;61036;53.224;6.554;2022-08-21T08:45:50;101537.00;;;31.27;39.98
72896;BME280;61036;53.224;6.554;2022-08-21T08:51:19;101545.31;;;30.10;44.51
72896;BME280;61036;53.224;6.554;2022-08-21T08:53:55;101534.56;;;28.66;45.82
72896;BME280;61036;53.224;6.554;2022-08-21T08:56:27;101535.84;;;29.92;44.95
72896;BME280;61036;53.224;6.554;2022-08-21T08:59:02;101535.91;;;31.28;39.76
72896;BME280;61036;53.224;6.554;2022-08-21T09:01:32;101542.63;;;30.03;42.94
72896;BME280;61036;53.224;6.554;2022-08-21T09:03:58;101541.69;;;28.02;47.35
72896;BME280;61036;53.224;6.554;2022-08-21T09:06:30;101547.56;;;26.98;51.69
72896;BME280;61036;53.224;6.554;2022-08-21T09:11:59;101544.38;;;26.32;59.10
72896;BME280;61036;53.224;6.554;2022-08-21T09:17:10;101550.78;;;26.60;55.03
72896;BME280;61036;53.224;6.554;2022-08-21T09:19:57;101548.91;;;26.67;54.50
72896;BME280;61036;53.224;6.554;2022-08-21T09:25:05;101546.41;;;24.50;64.68
72896;BME280;61036;53.224;6.554;2022-08-21T09:27:33;101541.81;;;27.54;54.22
72896;BME280;61036;53.224;6.554;2022-08-21T09:29:58;101540.69;;;27.29;51.15
72896;BME280;61036;53.224;6.554;2022-08-21T09:32:28;101532.13;;;31.52;41.40
72896;BME280;61036;53.224;6.554;2022-08-21T09:35:14;101539.81;;;31.08;40.57
72896;BME280;61036;53.224;6.554;2022-08-21T09:40:39;101539.00;;;31.19;40.75
72896;BME280;61036;53.224;6.554;2022-08-21T09:43:17;101552.53;;;26.40;54.52
72896;BME280;61036;53.224;6.554;2022-08-21T09:45:44;101546.31;;;31.51;41.18
72896;BME280;61036;53.224;6.554;2022-08-21T09:50:42;101560.81;;;25.69;56.29
72896;BME280;61036;53.224;6.554;2022-08-21T09:53:28;101541.88;;;28.14;51.41
72896;BME280;61036;53.224;6.554;2022-08-21T09:56:17;101537.75;;;28.70;46.23
72896;BME280;61036;53.224;6.554;2022-08-21T09:59:16;101538.53;;;29.04;45.21
72896;BME280;61036;53.224;6.554;2022-08-21T10:01:45;101536.44;;;29.69;43.56
72896;BME280;61036;53.224;6.554;2022-08-21T10:04:11;101527.25;;;29.37;45.28
72896;BME280;61036;53.224;6.554;2022-08-21T10:06:37;101534.66;;;28.98;44.70
72896;BME280;61036;53.224;6.554;2022-08-21T10:09:12;101525.34;;;29.31;44.71
72896;BME280;61036;53.224;6.554;2022-08-21T10:11:40;101519.56;;;29.32;46.08
72896;BME280;61036;53.224;6.554;2022-08-21T10:14:18;101534.31;;;29.96;42.61
72896;BME280;61036;53.224;6.554;2022-08-21T10:17:17;101519.50;;;29.39;43.75
72896;BME280;61036;53.224;6.554;2022-08-21T10:23:00;101525.69;;;28.04;47.54
72896;BME280;61036;53.224;6.554;2022-08-21T10:26:11;101531.22;;;26.34;50.84
72896;BME280;61036;53.224;6.554;2022-08-21T10:28:27;101519.31;;;25.19;56.04
72896;BME280;61036;53.224;6.554;2022-08-21T10:39:59;101524.53;;;23.72;63.79
72896;BME280;61036;53.224;6.554;2022-08-21T10:47:48;101539.41;;;23.09;66.05
72896;BME280;61036;53.224;6.554;2022-08-21T10:55:23;101542.56;;;22.42;74.04
72896;BME280;61036;53.224;6.554;2022-08-21T10:57:50;101544.31;;;22.27;76.82
72896;BME280;61036;53.224;6.554;2022-08-21T11:00:23;101548.75;;;22.36;76.83
72896;BME280;61036;53.224;6.554;2022-08-21T11:03:10;101538.66;;;22.76;76.11
72896;BME280;61036;53.224;6.554;2022-08-21T11:05:46;101533.66;;;22.79;75.32
72896;BME280;61036;53.224;6.554;2022-08-21T11:11:05;101541.31;;;23.00;75.59
72896;BME280;61036;53.224;6.554;2022-08-21T11:22:11;101544.38;;;24.88;67.88
72896;BME280;61036;53.224;6.554;2022-08-21T11:24:43;101538.75;;;24.67;65.76
72896;BME280;61036;53.224;6.554;2022-08-21T11:29:59;101532.13;;;25.27;59.77
72896;BME280;61036;53.224;6.554;2022-08-21T11:44:21;101531.88;;;26.08;56.61
72896;BME280;61036;53.224;6.554;2022-08-21T11:52:15;101525.84;;;24.52;63.55
72896;BME280;61036;53.224;6.554;2022-08-21T12:00:06;101539.66;;;24.52;64.64
72896;BME280;61036;53.224;6.554;2022-08-21T12:02:53;101534.19;;;24.89;63.91
72896;BME280;61036;53.224;6.554;2022-08-21T12:05:32;101539.97;;;24.94;62.65
72896;BME280;61036;53.224;6.554;2022-08-21T12:08:36;101535.50;;;25.65;59.39
72896;BME280;61036;53.224;6.554;2022-08-21T12:13:39;101531.16;;;25.35;54.18
72896;BME280;61036;53.224;6.554;2022-08-21T12:16:15;101533.50;;;26.23;53.45
72896;BME280;61036;53.224;6.554;2022-08-21T12:18:42;101527.22;;;26.71;50.25
72896;BME280;61036;53.224;6.554;2022-08-21T12:21:22;101522.69;;;26.57;51.60
72896;BME280;61036;53.224;6.554;2022-08-21T12:26:46;101524.41;;;26.64;50.90
72896;BME280;61036;53.224;6.554;2022-08-21T12:29:21;101528.31;;;26.77;50.14
72896;BME280;61036;53.224;6.554;2022-08-21T12:31:52;101515.28;;;26.71;48.70
72896;BME280;61036;53.224;6.554;2022-08-21T12:34:19;101532.13;;;26.41;50.53
72896;BME280;61036;53.224;6.554;2022-08-21T12:36:52;101533.56;;;26.65;51.09
72896;BME280;61036;53.224;6.554;2022-08-21T12:39:24;101538.72;;;26.12;51.63
72896;BME280;61036;53.224;6.554;2022-08-21T12:42:00;101528.66;;;26.04;51.90
72896;BME280;61036;53.224;6.554;2022-08-21T12:44:35;101538.53;;;25.13;56.20
72896;BME280;61036;53.224;6.554;2022-08-21T12:47:11;101533.50;;;25.01;57.30
72896;BME280;61036;53.224;6.554;2022-08-21T12:50:03;101540.94;;;24.86;57.48
72896;BME280;61036;53.224;6.554;2022-08-21T12:52:38;101534.03;;;25.12;56.10
72896;BME280;61036;53.224;6.554;2022-08-21T12:55:10;101536.34;;;25.08;55.81
72896;BME280;61036;53.224;6.554;2022-08-21T12:57:40;101538.22;;;24.56;55.66
72896;BME280;61036;53.224;6.554;2022-08-21T13:00:08;101547.56;;;24.17;55.53
72896;BME280;61036;53.224;6.554;2022-08-21T13:02:41;101540.75;;;24.58;54.45
72896;BME280;61036;53.224;6.554;2022-08-21T13:05:14;101541.59;;;24.29;51.63
72896;BME280;61036;53.224;6.554;2022-08-21T13:07:45;101540.34;;;25.05;52.52
72896;BME280;61036;53.224;6.554;2022-08-21T13:10:26;101544.00;;;25.64;51.27
72896;BME280;61036;53.224;6.554;2022-08-21T13:13:00;101549.56;;;26.41;47.56
72896;BME280;61036;53.224;6.554;2022-08-21T13:15:33;101552.03;;;26.02;48.88
72896;BME280;61036;53.224;6.554;2022-08-21T13:18:01;101561.38;;;26.29;47.65
72896;BME280;61036;53.224;6.554;2022-08-21T13:20:38;101547.59;;;26.07;46.36
72896;BME280;61036;53.224;6.554;2022-08-21T13:23:24;101551.41;;;25.42;48.78
72896;BME280;61036;53.224;6.554;2022-08-21T13:25:50;101549.22;;;25.16;52.32
72896;BME280;61036;53.224;6.554;2022-08-21T13:28:18;101554.41;;;25.25;52.30
72896;BME280;61036;53.224;6.554;2022-08-21T13:30:48;101548.81;;;25.76;50.82
72896;BME280;61036;53.224;6.554;2022-08-21T13:33:16;101556.84;;;24.69;55.15
72896;BME280;61036;53.224;6.554;2022-08-21T13:36:01;101555.28;;;24.96;56.29
72896;BME280;61036;53.224;6.554;2022-08-21T13:38:30;101556.56;;;24.64;52.95
72896;BME280;61036;53.224;6.554;2022-08-21T13:41:01;101557.69;;;24.70;52.27
72896;BME280;61036;53.224;6.554;2022-08-21T13:43:32;101557.09;;;25.04;54.08
72896;BME280;61036;53.224;6.554;2022-08-21T13:45:58;101550.47;;;24.83;53.79
72896;BME280;61036;53.224;6.554;2022-08-21T13:48:27;101559.34;;;25.30;53.04
72896;BME280;61036;53.224;6.554;2022-08-21T13:50:54;101553.69;;;25.17;50.88
72896;BME280;61036;53.224;6.554;2022-08-21T13:55:51;101555.59;;;25.01;53.20
72896;BME280;61036;53.224;6.554;2022-08-21T13:58:32;101551.06;;;25.30;53.39
72896;BME280;61036;53.224;6.554;2022-08-21T14:01:00;101564.34;;;24.90;54.69
72896;BME280;61036;53.224;6.554;2022-08-21T14:03:37;101561.31;;;24.55;53.81
72896;BME280;61036;53.224;6.554;2022-08-21T14:06:18;101562.75;;;24.66;54.00
72896;BME280;61036;53.224;6.554;2022-08-21T14:08:58;101562.00;;;24.19;56.31
72896;BME280;61036;53.224;6.554;2022-08-21T14:11:26;101560.97;;;24.35;56.75
72896;BME280;61036;53.224;6.554;2022-08-21T14:13:57;101557.22;;;23.99;55.67
72896;BME280;61036;53.224;6.554;2022-08-21T14:16:27;101566.56;;;23.66;57.25
72896;BME280;61036;53.224;6.554;2022-08-21T14:19:08;101564.59;;;23.52;57.33
72896;BME280;61036;53.224;6.554;2022-08-21T14:21:40;101564.88;;;23.34;55.11